Aviation Digital Data Service (ADDS)

Output produced by METARs form (2240 UTC 25 May 2016)
found at http://www.aviationweather.gov/adds/metars/
 
KUNV 252153Z 25007KT 10SM SKC 27/09 A3010
KUNV 252053Z 26010KT 10SM SKC 27/09 A3011
KUNV 251953Z 25011KT 10SM SKC 28/10 A3012
KUNV 251853Z 27010KT 10SM SKC 28/11 A3013
KUNV 251753Z 27011G16KT 10SM SKC 27/11 A3014
KUNV 251653Z 24011G14KT 10SM SKC 27/10 A3015
KUNV 251553Z 29008KT 10SM SKC 26/11 A3016
KUNV 251453Z 27007KT 10SM SKC 24/12 A3015
KUNV 251353Z 24005KT 10SM SKC 22/12 A3015
KUNV 251253Z 00000KT 10SM SKC 19/12 A3016
KUNV 251153Z 00000KT 10SM SKC 15/10 A3016
KUNV 251053Z 00000KT 10SM SKC 11/09 A3015
KUNV 250953Z 00000KT 10SM SKC 12/07 A3012
KUNV 250935Z AUTO 00000KT 10SM CLR 11/07 A3012 RMK AO2 T01130071
KUNV 250915Z AUTO 25003KT 10SM CLR 11/08 A3012 RMK AO2 T01110075
KUNV 250855Z AUTO 24003KT 10SM CLR 12/07 A3011 RMK AO2 T01240067
KUNV 250835Z AUTO 26004KT 10SM CLR 15/07 A3011 RMK AO2 T01460067
KUNV 250815Z AUTO 26006KT 10SM CLR 14/07 A3010 RMK AO2 T01420067
KUNV 250755Z AUTO 26006KT 10SM CLR 14/07 A3010 RMK AO2 T01380071
KUNV 250735Z AUTO 26003KT 10SM CLR 14/07 A3010 RMK AO2 T01380066
KUNV 250715Z AUTO 19003KT 10SM CLR 14/07 A3009 RMK AO2 T01350071
KUNV 250655Z AUTO 20003KT 10SM CLR 12/07 A3009 RMK AO2 T01170073
KUNV 250635Z AUTO 21003KT 10SM CLR 12/06 A3009 RMK AO2 T01200064
KUNV 250615Z AUTO 22004KT 10SM CLR 14/07 A3009 RMK AO2 T01390067
KUNV 250555Z AUTO 00000KT 10SM CLR 13/07 A3009 RMK AO2 T01330072 10239 20132
KUNV 250535Z AUTO 00000KT 10SM CLR 14/08 A3009 RMK AO2 T01420076
KUNV 250515Z AUTO 00000KT 10SM CLR 15/06 A3009 RMK AO2 T01510064
KUNV 250455Z AUTO 00000KT 10SM CLR 16/07 A3009 RMK AO2 T01580072
KUNV 250435Z AUTO 19005KT 10SM CLR 15/08 A3009 RMK AO2 T01460078
KUNV 250415Z AUTO 00000KT 10SM CLR 15/08 A3008 RMK AO2 T01540076
KUNV 250355Z AUTO 18003KT 10SM CLR 15/07 A3008 RMK AO2 T01480069 402630092
KUNV 250335Z AUTO 00000KT 10SM CLR 18/05 A3008 RMK AO2 T01830052
KUNV 250315Z AUTO 29003KT 10SM CLR 19/06 A3008 RMK AO2 T01880058
KUNV 250255Z AUTO 29005KT 10SM CLR 18/07 A3008 RMK AO2 T01800071
KUNV 250235Z AUTO 28006KT 10SM CLR 18/07 A3007 RMK AO2 LTG DSNT NE T01820071
KUNV 250215Z AUTO 28005KT 10SM CLR 19/07 A3006 RMK AO2 T01920066
KUNV 250155Z AUTO 27005KT 10SM CLR 19/07 A3005 RMK AO2 T01930068
KUNV 250053Z 24006KT 10SM SKC 21/06 A3002
KUNV 242353Z 27008KT 10SM SKC 24/05 A3000
KUNV 242253Z 26010G18KT 10SM SKC 25/06 A2999
KUNV 242153Z 25009G22KT 10SM SCT095 26/07 A2999
KUNV 242053Z 29011G20KT 10SM SCT095 26/08 A2999
KUNV 241953Z 28014KT 10SM SCT095 26/09 A2999
KUNV 241853Z 29014KT 10SM SCT095 26/08 A3000
KUNV 241753Z 30012KT 10SM SCT085 25/07 A3000
KUNV 241653Z 31010KT 10SM SCT070 24/08 A3002
KUNV 241553Z 31010KT 10SM SCT060 24/08 A3003
KUNV 241453Z 36007KT 10SM SKC 23/08 A3003
KUNV 241353Z 00000KT 10SM SKC 20/10 A3004
KUNV 241253Z 18004KT 10SM SKC 17/11 A3004
KUNV 241153Z 17003KT 10SM SKC 13/10 A3003
KUNV 241053Z 18003KT 10SM SKC 11/09 A3001